sensor_id;sensor_type;location;lat;lon;timestamp;P1;durP1;ratioP1;P2;durP2;ratioP2
25191;SDS011;13143;50.924;5.320;2022-11-21T00:00:15;20.75;;;4.82;;
25191;SDS011;13143;50.924;5.320;2022-11-21T00:02:41;29.80;;;5.50;;
25191;SDS011;13143;50.924;5.320;2022-11-21T00:05:07;21.50;;;5.10;;
25191;SDS011;13143;50.924;5.320;2022-11-21T00:07:32;30.67;;;5.47;;
25191;SDS011;13143;50.924;5.320;2022-11-21T00:09:58;28.95;;;5.32;;
25191;SDS011;13143;50.924;5.320;2022-11-21T00:12:24;23.30;;;5.20;;
25191;SDS011;13143;50.924;5.320;2022-11-21T00:14:49;24.50;;;5.05;;
25191;SDS011;13143;50.924;5.320;2022-11-21T00:17:15;26.80;;;4.78;;
25191;SDS011;13143;50.924;5.320;2022-11-21T00:19:41;17.85;;;6.25;;
25191;SDS011;13143;50.924;5.320;2022-11-21T00:22:06;23.42;;;4.45;;
25191;SDS011;13143;50.924;5.320;2022-11-21T00:24:32;21.70;;;3.95;;
25191;SDS011;13143;50.924;5.320;2022-11-21T00:26:58;24.67;;;4.65;;
25191;SDS011;13143;50.924;5.320;2022-11-21T00:29:23;26.98;;;4.85;;
25191;SDS011;13143;50.924;5.320;2022-11-21T00:31:49;25.88;;;4.68;;
25191;SDS011;13143;50.924;5.320;2022-11-21T00:34:14;21.35;;;4.22;;
25191;SDS011;13143;50.924;5.320;2022-11-21T00:36:40;17.23;;;4.40;;
25191;SDS011;13143;50.924;5.320;2022-11-21T00:39:06;15.52;;;4.95;;
25191;SDS011;13143;50.924;5.320;2022-11-21T00:41:32;32.03;;;5.63;;
25191;SDS011;13143;50.924;5.320;2022-11-21T00:43:58;21.13;;;4.53;;
25191;SDS011;13143;50.924;5.320;2022-11-21T00:46:24;15.73;;;4.15;;
25191;SDS011;13143;50.924;5.320;2022-11-21T00:48:49;21.13;;;4.97;;
25191;SDS011;13143;50.924;5.320;2022-11-21T00:51:15;23.35;;;5.53;;
25191;SDS011;13143;50.924;5.320;2022-11-21T00:53:41;23.80;;;5.18;;
25191;SDS011;13143;50.924;5.320;2022-11-21T00:56:06;23.63;;;4.40;;
25191;SDS011;13143;50.924;5.320;2022-11-21T00:58:32;17.52;;;4.00;;
25191;SDS011;13143;50.924;5.320;2022-11-21T01:01:01;15.82;;;3.92;;
25191;SDS011;13143;50.924;5.320;2022-11-21T01:03:33;19.60;;;4.20;;
25191;SDS011;13143;50.924;5.320;2022-11-21T01:06:05;22.10;;;4.70;;
25191;SDS011;13143;50.924;5.320;2022-11-21T01:08:36;16.45;;;4.15;;
25191;SDS011;13143;50.924;5.320;2022-11-21T01:11:04;14.27;;;4.25;;
25191;SDS011;13143;50.924;5.320;2022-11-21T01:13:35;18.27;;;4.05;;
25191;SDS011;13143;50.924;5.320;2022-11-21T01:16:04;20.65;;;4.00;;
25191;SDS011;13143;50.924;5.320;2022-11-21T01:18:51;18.05;;;4.10;;
25191;SDS011;13143;50.924;5.320;2022-11-21T01:21:18;14.23;;;3.53;;
25191;SDS011;13143;50.924;5.320;2022-11-21T01:23:49;20.50;;;4.57;;
25191;SDS011;13143;50.924;5.320;2022-11-21T01:26:15;17.30;;;3.35;;
25191;SDS011;13143;50.924;5.320;2022-11-21T01:28:43;14.55;;;3.55;;
25191;SDS011;13143;50.924;5.320;2022-11-21T01:31:13;14.13;;;3.70;;
25191;SDS011;13143;50.924;5.320;2022-11-21T01:33:41;12.98;;;4.13;;
25191;SDS011;13143;50.924;5.320;2022-11-21T01:38:37;16.40;;;3.65;;
25191;SDS011;13143;50.924;5.320;2022-11-21T01:41:04;10.68;;;3.13;;
25191;SDS011;13143;50.924;5.320;2022-11-21T01:43:30;12.60;;;3.28;;
25191;SDS011;13143;50.924;5.320;2022-11-21T01:46:00;13.88;;;3.80;;
25191;SDS011;13143;50.924;5.320;2022-11-21T01:51:06;16.25;;;3.95;;
25191;SDS011;13143;50.924;5.320;2022-11-21T01:53:42;15.80;;;3.33;;
25191;SDS011;13143;50.924;5.320;2022-11-21T01:56:11;15.05;;;3.80;;
25191;SDS011;13143;50.924;5.320;2022-11-21T01:58:38;20.10;;;3.63;;
25191;SDS011;13143;50.924;5.320;2022-11-21T02:01:05;21.65;;;4.03;;
25191;SDS011;13143;50.924;5.320;2022-11-21T02:03:32;11.55;;;3.72;;
25191;SDS011;13143;50.924;5.320;2022-11-21T02:06:01;14.82;;;4.28;;
25191;SDS011;13143;50.924;5.320;2022-11-21T02:08:27;17.27;;;3.97;;
25191;SDS011;13143;50.924;5.320;2022-11-21T02:13:22;17.25;;;4.05;;
25191;SDS011;13143;50.924;5.320;2022-11-21T02:15:48;13.38;;;4.10;;
25191;SDS011;13143;50.924;5.320;2022-11-21T02:18:13;18.33;;;4.07;;
25191;SDS011;13143;50.924;5.320;2022-11-21T02:20:39;14.98;;;4.25;;
25191;SDS011;13143;50.924;5.320;2022-11-21T02:23:11;22.40;;;4.60;;
25191;SDS011;13143;50.924;5.320;2022-11-21T02:25:39;16.20;;;4.75;;
25191;SDS011;13143;50.924;5.320;2022-11-21T02:28:15;22.60;;;4.95;;
25191;SDS011;13143;50.924;5.320;2022-11-21T02:30:44;20.75;;;4.40;;
25191;SDS011;13143;50.924;5.320;2022-11-21T02:33:10;13.27;;;4.35;;
25191;SDS011;13143;50.924;5.320;2022-11-21T02:35:37;18.27;;;3.50;;
25191;SDS011;13143;50.924;5.320;2022-11-21T02:40:41;13.93;;;4.20;;
25191;SDS011;13143;50.924;5.320;2022-11-21T02:43:20;20.70;;;4.20;;
25191;SDS011;13143;50.924;5.320;2022-11-21T02:45:52;19.27;;;4.95;;
25191;SDS011;13143;50.924;5.320;2022-11-21T02:48:18;17.30;;;4.45;;
25191;SDS011;13143;50.924;5.320;2022-11-21T02:50:44;21.98;;;4.47;;
25191;SDS011;13143;50.924;5.320;2022-11-21T02:53:15;15.45;;;4.35;;
25191;SDS011;13143;50.924;5.320;2022-11-21T02:55:43;22.08;;;4.78;;
25191;SDS011;13143;50.924;5.320;2022-11-21T02:58:09;15.82;;;4.95;;
25191;SDS011;13143;50.924;5.320;2022-11-21T03:00:35;19.77;;;4.35;;
25191;SDS011;13143;50.924;5.320;2022-11-21T03:03:02;14.45;;;4.85;;
25191;SDS011;13143;50.924;5.320;2022-11-21T03:05:28;17.13;;;4.35;;
25191;SDS011;13143;50.924;5.320;2022-11-21T03:07:54;15.13;;;3.83;;
25191;SDS011;13143;50.924;5.320;2022-11-21T03:10:20;14.32;;;3.80;;
25191;SDS011;13143;50.924;5.320;2022-11-21T03:12:45;18.10;;;4.15;;
25191;SDS011;13143;50.924;5.320;2022-11-21T03:15:12;18.40;;;4.43;;
25191;SDS011;13143;50.924;5.320;2022-11-21T03:17:39;17.08;;;4.10;;
25191;SDS011;13143;50.924;5.320;2022-11-21T03:20:06;17.15;;;4.07;;
25191;SDS011;13143;50.924;5.320;2022-11-21T03:22:33;15.35;;;3.50;;
25191;SDS011;13143;50.924;5.320;2022-11-21T03:24:59;21.58;;;4.07;;
25191;SDS011;13143;50.924;5.320;2022-11-21T03:27:24;17.88;;;4.20;;
25191;SDS011;13143;50.924;5.320;2022-11-21T03:29:50;17.40;;;3.80;;
25191;SDS011;13143;50.924;5.320;2022-11-21T03:32:15;22.08;;;4.00;;
25191;SDS011;13143;50.924;5.320;2022-11-21T03:34:41;13.40;;;3.50;;
25191;SDS011;13143;50.924;5.320;2022-11-21T03:37:07;16.35;;;4.10;;
25191;SDS011;13143;50.924;5.320;2022-11-21T03:39:32;13.65;;;3.80;;
25191;SDS011;13143;50.924;5.320;2022-11-21T03:41:58;19.23;;;4.07;;
25191;SDS011;13143;50.924;5.320;2022-11-21T03:44:23;13.07;;;3.58;;
25191;SDS011;13143;50.924;5.320;2022-11-21T03:46:49;16.30;;;4.38;;
25191;SDS011;13143;50.924;5.320;2022-11-21T03:49:15;14.02;;;3.35;;
25191;SDS011;13143;50.924;5.320;2022-11-21T03:51:42;17.30;;;3.90;;
25191;SDS011;13143;50.924;5.320;2022-11-21T03:54:08;10.55;;;3.63;;
25191;SDS011;13143;50.924;5.320;2022-11-21T03:56:34;15.95;;;3.88;;
25191;SDS011;13143;50.924;5.320;2022-11-21T03:59:00;12.27;;;4.00;;
25191;SDS011;13143;50.924;5.320;2022-11-21T04:01:26;12.85;;;3.88;;
25191;SDS011;13143;50.924;5.320;2022-11-21T04:03:52;10.18;;;3.05;;
25191;SDS011;13143;50.924;5.320;2022-11-21T04:06:18;16.00;;;4.30;;
25191;SDS011;13143;50.924;5.320;2022-11-21T04:08:46;15.55;;;4.18;;
25191;SDS011;13143;50.924;5.320;2022-11-21T04:11:12;13.23;;;3.55;;
25191;SDS011;13143;50.924;5.320;2022-11-21T04:13:38;17.20;;;3.75;;
25191;SDS011;13143;50.924;5.320;2022-11-21T04:16:04;11.13;;;3.28;;
25191;SDS011;13143;50.924;5.320;2022-11-21T04:18:30;20.13;;;4.15;;
25191;SDS011;13143;50.924;5.320;2022-11-21T04:20:56;15.68;;;3.33;;
25191;SDS011;13143;50.924;5.320;2022-11-21T04:23:22;16.80;;;3.88;;
25191;SDS011;13143;50.924;5.320;2022-11-21T04:25:48;11.93;;;3.55;;
25191;SDS011;13143;50.924;5.320;2022-11-21T04:28:13;10.45;;;3.30;;
25191;SDS011;13143;50.924;5.320;2022-11-21T04:30:39;14.88;;;3.60;;
25191;SDS011;13143;50.924;5.320;2022-11-21T04:33:05;14.35;;;3.47;;
25191;SDS011;13143;50.924;5.320;2022-11-21T04:35:31;13.52;;;3.50;;
25191;SDS011;13143;50.924;5.320;2022-11-21T04:37:57;16.85;;;3.90;;
25191;SDS011;13143;50.924;5.320;2022-11-21T04:40:22;13.73;;;3.65;;
25191;SDS011;13143;50.924;5.320;2022-11-21T04:42:48;13.45;;;3.60;;
25191;SDS011;13143;50.924;5.320;2022-11-21T04:45:14;17.45;;;4.25;;
25191;SDS011;13143;50.924;5.320;2022-11-21T04:47:41;13.20;;;3.58;;
25191;SDS011;13143;50.924;5.320;2022-11-21T04:50:08;11.02;;;3.40;;
25191;SDS011;13143;50.924;5.320;2022-11-21T04:52:36;19.73;;;3.90;;
25191;SDS011;13143;50.924;5.320;2022-11-21T04:55:02;9.07;;;3.58;;
25191;SDS011;13143;50.924;5.320;2022-11-21T04:57:28;15.07;;;3.50;;
25191;SDS011;13143;50.924;5.320;2022-11-21T04:59:55;13.40;;;3.55;;
25191;SDS011;13143;50.924;5.320;2022-11-21T05:02:21;12.95;;;3.72;;
25191;SDS011;13143;50.924;5.320;2022-11-21T05:04:47;15.90;;;3.92;;
25191;SDS011;13143;50.924;5.320;2022-11-21T05:07:12;13.57;;;3.65;;
25191;SDS011;13143;50.924;5.320;2022-11-21T05:09:38;14.80;;;3.85;;
25191;SDS011;13143;50.924;5.320;2022-11-21T05:12:04;12.88;;;3.92;;
25191;SDS011;13143;50.924;5.320;2022-11-21T05:14:48;19.13;;;3.92;;
25191;SDS011;13143;50.924;5.320;2022-11-21T05:17:14;14.20;;;3.72;;
25191;SDS011;13143;50.924;5.320;2022-11-21T05:19:40;11.95;;;3.78;;
25191;SDS011;13143;50.924;5.320;2022-11-21T05:22:05;19.25;;;4.00;;
25191;SDS011;13143;50.924;5.320;2022-11-21T05:24:31;14.55;;;3.53;;
25191;SDS011;13143;50.924;5.320;2022-11-21T05:26:57;15.15;;;4.18;;
25191;SDS011;13143;50.924;5.320;2022-11-21T05:29:22;14.05;;;4.43;;
25191;SDS011;13143;50.924;5.320;2022-11-21T05:31:48;15.25;;;4.30;;
25191;SDS011;13143;50.924;5.320;2022-11-21T05:34:13;13.38;;;4.13;;
25191;SDS011;13143;50.924;5.320;2022-11-21T05:36:39;17.20;;;4.25;;
25191;SDS011;13143;50.924;5.320;2022-11-21T05:39:05;15.40;;;4.25;;
25191;SDS011;13143;50.924;5.320;2022-11-21T05:41:31;14.43;;;3.65;;
25191;SDS011;13143;50.924;5.320;2022-11-21T05:43:56;20.30;;;4.20;;
25191;SDS011;13143;50.924;5.320;2022-11-21T05:46:23;14.95;;;3.85;;
25191;SDS011;13143;50.924;5.320;2022-11-21T05:48:49;14.95;;;4.28;;
25191;SDS011;13143;50.924;5.320;2022-11-21T05:51:16;14.73;;;4.30;;
25191;SDS011;13143;50.924;5.320;2022-11-21T05:53:43;18.13;;;4.65;;
25191;SDS011;13143;50.924;5.320;2022-11-21T05:56:11;18.35;;;3.92;;
25191;SDS011;13143;50.924;5.320;2022-11-21T05:58:38;17.67;;;3.88;;
25191;SDS011;13143;50.924;5.320;2022-11-21T06:01:05;17.05;;;4.55;;
25191;SDS011;13143;50.924;5.320;2022-11-21T06:03:34;15.52;;;3.90;;
25191;SDS011;13143;50.924;5.320;2022-11-21T06:06:02;15.05;;;4.20;;
25191;SDS011;13143;50.924;5.320;2022-11-21T06:08:42;13.50;;;4.32;;
25191;SDS011;13143;50.924;5.320;2022-11-21T06:11:10;14.75;;;4.25;;
25191;SDS011;13143;50.924;5.320;2022-11-21T06:13:39;14.20;;;4.03;;
25191;SDS011;13143;50.924;5.320;2022-11-21T06:16:06;14.70;;;3.90;;
25191;SDS011;13143;50.924;5.320;2022-11-21T06:18:35;11.45;;;4.07;;
25191;SDS011;13143;50.924;5.320;2022-11-21T06:23:28;15.40;;;4.93;;
25191;SDS011;13143;50.924;5.320;2022-11-21T06:25:57;17.33;;;4.28;;
25191;SDS011;13143;50.924;5.320;2022-11-21T06:28:24;12.45;;;4.18;;
25191;SDS011;13143;50.924;5.320;2022-11-21T06:30:50;15.90;;;4.10;;
25191;SDS011;13143;50.924;5.320;2022-11-21T06:33:17;12.98;;;3.90;;
25191;SDS011;13143;50.924;5.320;2022-11-21T06:35:43;11.60;;;4.05;;
25191;SDS011;13143;50.924;5.320;2022-11-21T06:38:09;16.10;;;4.10;;
25191;SDS011;13143;50.924;5.320;2022-11-21T06:40:37;13.20;;;4.15;;
25191;SDS011;13143;50.924;5.320;2022-11-21T06:43:03;15.82;;;4.15;;
25191;SDS011;13143;50.924;5.320;2022-11-21T06:45:29;15.13;;;4.60;;
25191;SDS011;13143;50.924;5.320;2022-11-21T06:47:55;17.20;;;4.40;;
25191;SDS011;13143;50.924;5.320;2022-11-21T06:50:20;17.08;;;4.28;;
25191;SDS011;13143;50.924;5.320;2022-11-21T06:52:47;14.88;;;4.18;;
25191;SDS011;13143;50.924;5.320;2022-11-21T06:55:13;14.02;;;3.92;;
25191;SDS011;13143;50.924;5.320;2022-11-21T06:57:39;16.33;;;3.70;;
25191;SDS011;13143;50.924;5.320;2022-11-21T07:00:04;13.95;;;3.70;;
25191;SDS011;13143;50.924;5.320;2022-11-21T07:02:31;15.00;;;4.47;;
25191;SDS011;13143;50.924;5.320;2022-11-21T07:04:56;19.48;;;4.53;;
25191;SDS011;13143;50.924;5.320;2022-11-21T07:07:22;14.98;;;4.28;;
25191;SDS011;13143;50.924;5.320;2022-11-21T07:09:48;19.20;;;4.25;;
25191;SDS011;13143;50.924;5.320;2022-11-21T07:12:13;17.95;;;4.25;;
25191;SDS011;13143;50.924;5.320;2022-11-21T07:14:57;19.95;;;4.88;;
25191;SDS011;13143;50.924;5.320;2022-11-21T07:17:23;14.40;;;4.20;;
25191;SDS011;13143;50.924;5.320;2022-11-21T07:19:48;20.23;;;5.03;;
25191;SDS011;13143;50.924;5.320;2022-11-21T07:22:14;18.95;;;5.13;;
25191;SDS011;13143;50.924;5.320;2022-11-21T07:24:40;23.20;;;5.38;;
25191;SDS011;13143;50.924;5.320;2022-11-21T07:27:05;26.15;;;5.45;;
25191;SDS011;13143;50.924;5.320;2022-11-21T07:29:31;21.45;;;5.97;;
25191;SDS011;13143;50.924;5.320;2022-11-21T07:31:56;25.98;;;6.00;;
25191;SDS011;13143;50.924;5.320;2022-11-21T07:34:22;22.83;;;5.55;;
25191;SDS011;13143;50.924;5.320;2022-11-21T07:36:48;17.42;;;5.50;;
25191;SDS011;13143;50.924;5.320;2022-11-21T07:39:13;21.73;;;5.85;;
25191;SDS011;13143;50.924;5.320;2022-11-21T07:41:39;21.67;;;5.63;;
25191;SDS011;13143;50.924;5.320;2022-11-21T07:44:04;20.95;;;5.57;;
25191;SDS011;13143;50.924;5.320;2022-11-21T07:46:30;20.23;;;5.10;;
25191;SDS011;13143;50.924;5.320;2022-11-21T07:48:55;16.83;;;5.97;;
25191;SDS011;13143;50.924;5.320;2022-11-21T07:51:21;21.13;;;4.80;;
25191;SDS011;13143;50.924;5.320;2022-11-21T07:53:47;19.55;;;5.20;;
25191;SDS011;13143;50.924;5.320;2022-11-21T07:56:12;24.27;;;5.93;;
25191;SDS011;13143;50.924;5.320;2022-11-21T07:58:38;17.90;;;4.95;;
25191;SDS011;13143;50.924;5.320;2022-11-21T08:01:04;12.98;;;4.03;;
25191;SDS011;13143;50.924;5.320;2022-11-21T08:03:31;18.63;;;5.30;;
25191;SDS011;13143;50.924;5.320;2022-11-21T08:05:59;21.63;;;5.18;;
25191;SDS011;13143;50.924;5.320;2022-11-21T08:08:27;21.45;;;4.53;;
25191;SDS011;13143;50.924;5.320;2022-11-21T08:10:53;19.67;;;5.15;;
25191;SDS011;13143;50.924;5.320;2022-11-21T08:13:19;15.73;;;4.18;;
25191;SDS011;13143;50.924;5.320;2022-11-21T08:15:44;25.48;;;5.70;;
25191;SDS011;13143;50.924;5.320;2022-11-21T08:18:11;18.65;;;5.05;;
25191;SDS011;13143;50.924;5.320;2022-11-21T08:20:40;17.10;;;4.65;;
25191;SDS011;13143;50.924;5.320;2022-11-21T08:23:06;14.50;;;4.35;;
25191;SDS011;13143;50.924;5.320;2022-11-21T08:25:35;15.38;;;4.50;;
25191;SDS011;13143;50.924;5.320;2022-11-21T08:28:02;11.38;;;3.90;;
25191;SDS011;13143;50.924;5.320;2022-11-21T08:30:28;21.95;;;4.88;;
25191;SDS011;13143;50.924;5.320;2022-11-21T08:32:54;11.60;;;4.32;;
25191;SDS011;13143;50.924;5.320;2022-11-21T08:35:21;8.80;;;3.03;;
25191;SDS011;13143;50.924;5.320;2022-11-21T08:37:47;12.57;;;3.50;;
25191;SDS011;13143;50.924;5.320;2022-11-21T08:40:13;12.13;;;3.72;;
25191;SDS011;13143;50.924;5.320;2022-11-21T08:42:38;13.52;;;4.30;;
25191;SDS011;13143;50.924;5.320;2022-11-21T08:45:04;19.83;;;4.40;;
25191;SDS011;13143;50.924;5.320;2022-11-21T08:47:33;15.35;;;3.47;;
25191;SDS011;13143;50.924;5.320;2022-11-21T08:49:59;12.18;;;3.67;;
25191;SDS011;13143;50.924;5.320;2022-11-21T08:52:24;14.68;;;3.75;;
25191;SDS011;13143;50.924;5.320;2022-11-21T08:54:50;13.90;;;3.72;;
25191;SDS011;13143;50.924;5.320;2022-11-21T08:57:16;13.70;;;3.25;;
25191;SDS011;13143;50.924;5.320;2022-11-21T08:59:41;12.90;;;3.58;;
25191;SDS011;13143;50.924;5.320;2022-11-21T09:02:09;17.50;;;4.40;;
25191;SDS011;13143;50.924;5.320;2022-11-21T09:04:35;12.63;;;3.53;;
25191;SDS011;13143;50.924;5.320;2022-11-21T09:07:01;8.95;;;3.35;;
25191;SDS011;13143;50.924;5.320;2022-11-21T09:09:28;8.98;;;3.35;;
25191;SDS011;13143;50.924;5.320;2022-11-21T09:11:53;14.85;;;3.97;;
25191;SDS011;13143;50.924;5.320;2022-11-21T09:14:19;11.32;;;4.07;;
25191;SDS011;13143;50.924;5.320;2022-11-21T09:17:03;11.75;;;4.20;;
25191;SDS011;13143;50.924;5.320;2022-11-21T09:19:48;15.90;;;3.75;;
25191;SDS011;13143;50.924;5.320;2022-11-21T09:22:13;17.92;;;3.17;;
25191;SDS011;13143;50.924;5.320;2022-11-21T09:24:39;18.13;;;3.22;;
25191;SDS011;13143;50.924;5.320;2022-11-21T09:27:04;14.85;;;3.03;;
25191;SDS011;13143;50.924;5.320;2022-11-21T09:29:30;12.25;;;2.90;;
25191;SDS011;13143;50.924;5.320;2022-11-21T09:31:56;9.15;;;2.40;;
25191;SDS011;13143;50.924;5.320;2022-11-21T09:34:21;11.60;;;2.50;;
25191;SDS011;13143;50.924;5.320;2022-11-21T09:36:47;10.88;;;2.60;;
25191;SDS011;13143;50.924;5.320;2022-11-21T09:39:12;16.13;;;3.28;;
25191;SDS011;13143;50.924;5.320;2022-11-21T09:41:40;12.00;;;2.42;;
25191;SDS011;13143;50.924;5.320;2022-11-21T09:47:22;7.60;;;2.03;;
25191;SDS011;13143;50.924;5.320;2022-11-21T09:49:55;11.80;;;2.50;;
25191;SDS011;13143;50.924;5.320;2022-11-21T09:52:25;14.60;;;2.60;;
25191;SDS011;13143;50.924;5.320;2022-11-21T09:55:00;13.18;;;2.55;;
25191;SDS011;13143;50.924;5.320;2022-11-21T09:57:31;13.35;;;2.63;;
25191;SDS011;13143;50.924;5.320;2022-11-21T10:00:00;15.02;;;2.45;;
25191;SDS011;13143;50.924;5.320;2022-11-21T10:02:28;15.43;;;2.72;;
25191;SDS011;13143;50.924;5.320;2022-11-21T10:04:54;13.70;;;2.65;;
25191;SDS011;13143;50.924;5.320;2022-11-21T10:07:25;14.07;;;2.85;;
25191;SDS011;13143;50.924;5.320;2022-11-21T10:21:08;16.58;;;3.88;;
25191;SDS011;13143;50.924;5.320;2022-11-21T10:26:39;15.02;;;4.35;;
25191;SDS011;13143;50.924;5.320;2022-11-21T10:29:19;10.70;;;3.75;;
25191;SDS011;13143;50.924;5.320;2022-11-21T10:31:46;10.40;;;3.90;;
25191;SDS011;13143;50.924;5.320;2022-11-21T10:34:21;14.55;;;4.30;;
25191;SDS011;13143;50.924;5.320;2022-11-21T10:36:55;19.63;;;4.38;;
25191;SDS011;13143;50.924;5.320;2022-11-21T10:39:27;13.52;;;3.90;;
25191;SDS011;13143;50.924;5.320;2022-11-21T10:41:57;11.32;;;3.70;;
25191;SDS011;13143;50.924;5.320;2022-11-21T10:44:31;9.10;;;3.75;;
25191;SDS011;13143;50.924;5.320;2022-11-21T10:47:22;12.60;;;4.55;;
25191;SDS011;13143;50.924;5.320;2022-11-21T10:52:27;12.80;;;4.78;;
25191;SDS011;13143;50.924;5.320;2022-11-21T10:57:30;15.20;;;6.07;;
25191;SDS011;13143;50.924;5.320;2022-11-21T11:00:13;21.75;;;6.60;;
25191;SDS011;13143;50.924;5.320;2022-11-21T11:02:56;24.70;;;6.32;;
25191;SDS011;13143;50.924;5.320;2022-11-21T11:05:29;15.77;;;5.72;;
25191;SDS011;13143;50.924;5.320;2022-11-21T11:08:04;17.75;;;6.32;;
25191;SDS011;13143;50.924;5.320;2022-11-21T11:10:38;18.08;;;6.78;;
25191;SDS011;13143;50.924;5.320;2022-11-21T11:13:13;16.77;;;7.50;;
25191;SDS011;13143;50.924;5.320;2022-11-21T11:18:36;17.40;;;7.93;;
25191;SDS011;13143;50.924;5.320;2022-11-21T11:21:13;18.00;;;7.70;;
25191;SDS011;13143;50.924;5.320;2022-11-21T11:23:40;18.13;;;7.55;;
25191;SDS011;13143;50.924;5.320;2022-11-21T11:26:17;19.38;;;7.40;;
25191;SDS011;13143;50.924;5.320;2022-11-21T11:29:03;17.77;;;6.95;;
25191;SDS011;13143;50.924;5.320;2022-11-21T11:31:42;18.15;;;6.10;;
25191;SDS011;13143;50.924;5.320;2022-11-21T11:34:14;13.30;;;5.20;;
25191;SDS011;13143;50.924;5.320;2022-11-21T11:39:42;16.85;;;5.03;;
25191;SDS011;13143;50.924;5.320;2022-11-21T11:48:30;13.40;;;4.40;;
25191;SDS011;13143;50.924;5.320;2022-11-21T11:50:59;11.82;;;3.75;;
25191;SDS011;13143;50.924;5.320;2022-11-21T11:53:30;13.93;;;4.30;;
25191;SDS011;13143;50.924;5.320;2022-11-21T11:56:10;16.37;;;4.60;;
25191;SDS011;13143;50.924;5.320;2022-11-21T11:58:42;13.70;;;3.72;;
25191;SDS011;13143;50.924;5.320;2022-11-21T12:01:20;11.73;;;3.85;;
25191;SDS011;13143;50.924;5.320;2022-11-21T12:03:58;14.23;;;4.07;;
25191;SDS011;13143;50.924;5.320;2022-11-21T12:09:01;19.38;;;4.20;;
25191;SDS011;13143;50.924;5.320;2022-11-21T12:18:03;11.88;;;3.50;;
25191;SDS011;13143;50.924;5.320;2022-11-21T12:23:22;8.70;;;3.30;;
25191;SDS011;13143;50.924;5.320;2022-11-21T12:29:04;20.15;;;3.90;;
25191;SDS011;13143;50.924;5.320;2022-11-21T12:40:26;11.85;;;3.70;;
25191;SDS011;13143;50.924;5.320;2022-11-21T12:45:47;20.27;;;3.88;;
25191;SDS011;13143;50.924;5.320;2022-11-21T12:51:42;20.63;;;3.65;;
25191;SDS011;13143;50.924;5.320;2022-11-21T12:57:25;16.13;;;3.50;;
25191;SDS011;13143;50.924;5.320;2022-11-21T13:00:26;12.30;;;3.40;;
25191;SDS011;13143;50.924;5.320;2022-11-21T13:03:19;12.23;;;3.30;;
25191;SDS011;13143;50.924;5.320;2022-11-21T13:06:14;17.30;;;3.78;;
25191;SDS011;13143;50.924;5.320;2022-11-21T13:08:44;20.30;;;4.55;;
25191;SDS011;13143;50.924;5.320;2022-11-21T13:11:15;14.65;;;3.63;;
25191;SDS011;13143;50.924;5.320;2022-11-21T13:17:00;15.57;;;3.60;;
25191;SDS011;13143;50.924;5.320;2022-11-21T13:25:01;15.05;;;3.47;;
25191;SDS011;13143;50.924;5.320;2022-11-21T13:51:22;24.38;;;4.38;;
25191;SDS011;13143;50.924;5.320;2022-11-21T13:54:03;19.73;;;4.30;;
25191;SDS011;13143;50.924;5.320;2022-11-21T13:59:50;13.80;;;3.33;;
25191;SDS011;13143;50.924;5.320;2022-11-21T14:07:48;15.68;;;3.53;;
25191;SDS011;13143;50.924;5.320;2022-11-21T14:12:44;22.98;;;3.97;;
25191;SDS011;13143;50.924;5.320;2022-11-21T14:17:49;17.17;;;3.97;;
25191;SDS011;13143;50.924;5.320;2022-11-21T14:28:09;16.40;;;3.90;;
25191;SDS011;13143;50.924;5.320;2022-11-21T14:30:39;24.13;;;4.32;;
25191;SDS011;13143;50.924;5.320;2022-11-21T14:35:48;22.08;;;4.13;;
25191;SDS011;13143;50.924;5.320;2022-11-21T14:38:22;15.95;;;4.15;;
25191;SDS011;13143;50.924;5.320;2022-11-21T14:40:49;20.23;;;3.67;;
25191;SDS011;13143;50.924;5.320;2022-11-21T14:43:28;16.55;;;3.90;;
25191;SDS011;13143;50.924;5.320;2022-11-21T14:45:55;20.40;;;3.58;;
25191;SDS011;13143;50.924;5.320;2022-11-21T14:48:28;17.17;;;3.97;;
25191;SDS011;13143;50.924;5.320;2022-11-21T14:50:57;23.20;;;4.38;;
25191;SDS011;13143;50.924;5.320;2022-11-21T14:53:24;21.23;;;4.00;;
25191;SDS011;13143;50.924;5.320;2022-11-21T14:55:51;16.52;;;4.00;;
25191;SDS011;13143;50.924;5.320;2022-11-21T14:58:17;21.23;;;4.22;;
25191;SDS011;13143;50.924;5.320;2022-11-21T15:01:00;20.52;;;4.25;;
25191;SDS011;13143;50.924;5.320;2022-11-21T15:03:59;20.33;;;3.67;;
25191;SDS011;13143;50.924;5.320;2022-11-21T15:06:29;18.17;;;4.22;;
25191;SDS011;13143;50.924;5.320;2022-11-21T15:08:57;21.77;;;3.33;;
25191;SDS011;13143;50.924;5.320;2022-11-21T15:11:28;22.52;;;3.58;;
25191;SDS011;13143;50.924;5.320;2022-11-21T15:14:04;14.32;;;3.05;;
25191;SDS011;13143;50.924;5.320;2022-11-21T15:16:52;9.88;;;2.60;;
25191;SDS011;13143;50.924;5.320;2022-11-21T15:19:22;6.45;;;2.22;;
25191;SDS011;13143;50.924;5.320;2022-11-21T15:21:50;9.57;;;2.70;;
25191;SDS011;13143;50.924;5.320;2022-11-21T15:24:27;10.73;;;2.75;;
25191;SDS011;13143;50.924;5.320;2022-11-21T15:27:21;16.27;;;2.78;;
25191;SDS011;13143;50.924;5.320;2022-11-21T15:33:17;17.13;;;3.25;;
25191;SDS011;13143;50.924;5.320;2022-11-21T15:46:15;11.10;;;2.58;;
25191;SDS011;13143;50.924;5.320;2022-11-21T15:48:48;14.60;;;2.88;;
25191;SDS011;13143;50.924;5.320;2022-11-21T15:51:34;15.25;;;3.63;;
25191;SDS011;13143;50.924;5.320;2022-11-21T15:54:05;12.55;;;2.90;;
25191;SDS011;13143;50.924;5.320;2022-11-21T15:56:31;13.23;;;3.10;;
25191;SDS011;13143;50.924;5.320;2022-11-21T15:58:57;14.05;;;3.05;;
25191;SDS011;13143;50.924;5.320;2022-11-21T16:01:24;6.22;;;2.63;;
25191;SDS011;13143;50.924;5.320;2022-11-21T16:03:57;14.20;;;3.53;;
25191;SDS011;13143;50.924;5.320;2022-11-21T16:06:23;14.38;;;3.80;;
25191;SDS011;13143;50.924;5.320;2022-11-21T16:08:49;16.25;;;3.47;;
25191;SDS011;13143;50.924;5.320;2022-11-21T16:11:22;12.27;;;3.22;;
25191;SDS011;13143;50.924;5.320;2022-11-21T16:13:50;11.80;;;3.63;;
25191;SDS011;13143;50.924;5.320;2022-11-21T16:16:17;13.82;;;3.17;;
25191;SDS011;13143;50.924;5.320;2022-11-21T16:18:43;10.55;;;3.10;;
25191;SDS011;13143;50.924;5.320;2022-11-21T16:21:10;16.25;;;3.40;;
25191;SDS011;13143;50.924;5.320;2022-11-21T16:23:35;11.95;;;2.90;;
25191;SDS011;13143;50.924;5.320;2022-11-21T16:26:02;10.27;;;2.80;;
25191;SDS011;13143;50.924;5.320;2022-11-21T16:28:28;11.55;;;2.95;;
25191;SDS011;13143;50.924;5.320;2022-11-21T16:30:53;12.40;;;3.17;;
25191;SDS011;13143;50.924;5.320;2022-11-21T16:33:21;10.10;;;2.78;;
25191;SDS011;13143;50.924;5.320;2022-11-21T16:35:47;14.85;;;2.92;;
25191;SDS011;13143;50.924;5.320;2022-11-21T16:38:13;14.57;;;3.67;;
25191;SDS011;13143;50.924;5.320;2022-11-21T16:40:39;10.15;;;3.28;;
25191;SDS011;13143;50.924;5.320;2022-11-21T16:43:08;11.48;;;3.65;;
25191;SDS011;13143;50.924;5.320;2022-11-21T16:45:36;14.38;;;3.42;;
25191;SDS011;13143;50.924;5.320;2022-11-21T16:48:03;13.38;;;3.30;;
25191;SDS011;13143;50.924;5.320;2022-11-21T16:50:29;19.02;;;3.92;;
25191;SDS011;13143;50.924;5.320;2022-11-21T16:52:55;14.45;;;3.58;;
25191;SDS011;13143;50.924;5.320;2022-11-21T16:55:21;16.58;;;3.75;;
25191;SDS011;13143;50.924;5.320;2022-11-21T16:57:47;19.92;;;3.50;;
25191;SDS011;13143;50.924;5.320;2022-11-21T17:00:13;14.57;;;3.35;;
25191;SDS011;13143;50.924;5.320;2022-11-21T17:02:39;13.95;;;3.75;;
25191;SDS011;13143;50.924;5.320;2022-11-21T17:05:04;12.75;;;4.07;;
25191;SDS011;13143;50.924;5.320;2022-11-21T17:07:31;12.80;;;3.83;;
25191;SDS011;13143;50.924;5.320;2022-11-21T17:09:57;19.52;;;4.70;;
25191;SDS011;13143;50.924;5.320;2022-11-21T17:12:23;11.10;;;3.70;;
25191;SDS011;13143;50.924;5.320;2022-11-21T17:14:49;15.48;;;3.88;;